sensor_id;sensor_type;location;lat;lon;timestamp;pressure;altitude;pressure_sealevel;temperature;humidity
16331;BME280;8275;48.206;16.340;2023-10-19T00:00:57;98246.00;;;14.19;44.25
16331;BME280;8275;48.206;16.340;2023-10-19T00:03:25;98234.69;;;14.20;44.42
16331;BME280;8275;48.206;16.340;2023-10-19T00:05:56;98229.19;;;14.20;44.42
16331;BME280;8275;48.206;16.340;2023-10-19T00:08:23;98219.78;;;14.21;44.47
16331;BME280;8275;48.206;16.340;2023-10-19T00:10:54;98221.72;;;14.21;44.65
16331;BME280;8275;48.206;16.340;2023-10-19T00:13:30;98206.00;;;14.21;44.60
16331;BME280;8275;48.206;16.340;2023-10-19T00:15:58;98205.19;;;14.21;44.71
16331;BME280;8275;48.206;16.340;2023-10-19T00:18:26;98203.75;;;14.23;44.68
16331;BME280;8275;48.206;16.340;2023-10-19T00:20:59;98202.97;;;14.23;44.79
16331;BME280;8275;48.206;16.340;2023-10-19T00:23:31;98196.31;;;14.24;44.79
16331;BME280;8275;48.206;16.340;2023-10-19T00:26:03;98196.31;;;14.24;44.92
16331;BME280;8275;48.206;16.340;2023-10-19T00:28:37;98186.94;;;14.25;45.11
16331;BME280;8275;48.206;16.340;2023-10-19T00:31:06;98198.75;;;14.25;45.02
16331;BME280;8275;48.206;16.340;2023-10-19T00:33:36;98191.53;;;14.29;45.08
16331;BME280;8275;48.206;16.340;2023-10-19T00:36:07;98184.91;;;14.30;45.21
16331;BME280;8275;48.206;16.340;2023-10-19T00:38:37;98184.00;;;14.35;45.33
16331;BME280;8275;48.206;16.340;2023-10-19T00:41:20;98172.38;;;14.38;45.33
16331;BME280;8275;48.206;16.340;2023-10-19T00:43:51;98175.53;;;14.45;45.29
16331;BME280;8275;48.206;16.340;2023-10-19T00:46:30;98164.41;;;14.50;45.29
16331;BME280;8275;48.206;16.340;2023-10-19T00:49:06;98167.25;;;14.58;45.36
16331;BME280;8275;48.206;16.340;2023-10-19T00:51:39;98148.97;;;14.62;45.28
16331;BME280;8275;48.206;16.340;2023-10-19T00:54:25;98149.66;;;14.68;45.28
16331;BME280;8275;48.206;16.340;2023-10-19T00:57:02;98152.00;;;14.74;45.32
16331;BME280;8275;48.206;16.340;2023-10-19T00:59:34;98148.00;;;14.81;45.44
16331;BME280;8275;48.206;16.340;2023-10-19T01:02:10;98142.38;;;14.86;45.36
16331;BME280;8275;48.206;16.340;2023-10-19T01:04:48;98134.81;;;14.91;45.40
16331;BME280;8275;48.206;16.340;2023-10-19T01:07:24;98138.56;;;14.95;45.27
16331;BME280;8275;48.206;16.340;2023-10-19T01:09:57;98136.00;;;14.99;45.39
16331;BME280;8275;48.206;16.340;2023-10-19T01:12:29;98134.53;;;15.01;45.32
16331;BME280;8275;48.206;16.340;2023-10-19T01:15:09;98135.06;;;15.03;45.37
16331;BME280;8275;48.206;16.340;2023-10-19T01:17:41;98130.53;;;15.07;45.05
16331;BME280;8275;48.206;16.340;2023-10-19T01:20:13;98129.91;;;15.10;45.17
16331;BME280;8275;48.206;16.340;2023-10-19T01:22:54;98128.78;;;15.11;45.24
16331;BME280;8275;48.206;16.340;2023-10-19T01:25:50;98121.84;;;15.14;44.97
16331;BME280;8275;48.206;16.340;2023-10-19T01:28:28;98104.94;;;15.15;45.24
16331;BME280;8275;48.206;16.340;2023-10-19T01:31:11;98105.44;;;15.17;45.33
16331;BME280;8275;48.206;16.340;2023-10-19T01:33:45;98099.31;;;15.20;45.19
16331;BME280;8275;48.206;16.340;2023-10-19T01:36:13;98106.97;;;15.23;45.31
16331;BME280;8275;48.206;16.340;2023-10-19T01:38:55;98100.31;;;15.24;45.24
16331;BME280;8275;48.206;16.340;2023-10-19T01:41:23;98091.41;;;15.27;45.24
16331;BME280;8275;48.206;16.340;2023-10-19T01:43:54;98089.97;;;15.30;45.09
16331;BME280;8275;48.206;16.340;2023-10-19T01:46:23;98092.41;;;15.31;45.30
16331;BME280;8275;48.206;16.340;2023-10-19T01:48:53;98083.50;;;15.34;45.23
16331;BME280;8275;48.206;16.340;2023-10-19T01:51:24;98074.91;;;15.36;45.07
16331;BME280;8275;48.206;16.340;2023-10-19T01:53:55;98082.06;;;15.37;45.08
16331;BME280;8275;48.206;16.340;2023-10-19T01:56:24;98074.59;;;15.37;45.24
16331;BME280;8275;48.206;16.340;2023-10-19T01:58:52;98067.13;;;15.38;45.06
16331;BME280;8275;48.206;16.340;2023-10-19T02:01:22;98071.50;;;15.39;45.22
16331;BME280;8275;48.206;16.340;2023-10-19T02:03:59;98072.34;;;15.39;45.29
16331;BME280;8275;48.206;16.340;2023-10-19T02:06:30;98068.44;;;15.40;45.22
16331;BME280;8275;48.206;16.340;2023-10-19T02:09:07;98066.50;;;15.41;45.17
16331;BME280;8275;48.206;16.340;2023-10-19T02:11:45;98063.41;;;15.42;45.08
16331;BME280;8275;48.206;16.340;2023-10-19T02:14:15;98059.03;;;15.41;45.20
16331;BME280;8275;48.206;16.340;2023-10-19T02:16:44;98063.72;;;15.41;45.18
16331;BME280;8275;48.206;16.340;2023-10-19T02:19:14;98058.22;;;15.41;45.28
16331;BME280;8275;48.206;16.340;2023-10-19T02:21:42;98061.78;;;15.41;45.21
16331;BME280;8275;48.206;16.340;2023-10-19T02:24:16;98057.38;;;15.40;45.27
16331;BME280;8275;48.206;16.340;2023-10-19T02:26:45;98055.78;;;15.39;45.14
16331;BME280;8275;48.206;16.340;2023-10-19T02:29:14;98052.53;;;15.37;45.12
16331;BME280;8275;48.206;16.340;2023-10-19T02:31:43;98048.44;;;15.35;45.40
16331;BME280;8275;48.206;16.340;2023-10-19T02:34:13;98031.06;;;15.34;45.37
16331;BME280;8275;48.206;16.340;2023-10-19T02:36:45;98039.69;;;15.33;45.29
16331;BME280;8275;48.206;16.340;2023-10-19T02:39:16;98027.31;;;15.30;45.30
16331;BME280;8275;48.206;16.340;2023-10-19T02:41:46;98014.16;;;15.27;45.45
16331;BME280;8275;48.206;16.340;2023-10-19T02:44:16;98012.84;;;15.25;45.43
16331;BME280;8275;48.206;16.340;2023-10-19T02:46:51;98016.22;;;15.22;45.56
16331;BME280;8275;48.206;16.340;2023-10-19T02:49:22;98017.16;;;15.17;45.51
16331;BME280;8275;48.206;16.340;2023-10-19T02:51:51;98012.59;;;15.13;45.62
16331;BME280;8275;48.206;16.340;2023-10-19T02:54:23;98008.03;;;15.08;45.89
16331;BME280;8275;48.206;16.340;2023-10-19T02:56:54;98002.03;;;15.06;45.91
16331;BME280;8275;48.206;16.340;2023-10-19T02:59:27;97997.16;;;15.03;45.96
16331;BME280;8275;48.206;16.340;2023-10-19T03:01:57;97990.00;;;15.02;46.09
16331;BME280;8275;48.206;16.340;2023-10-19T03:04:34;97991.94;;;15.02;46.07
16331;BME280;8275;48.206;16.340;2023-10-19T03:07:03;97991.44;;;15.00;46.24
16331;BME280;8275;48.206;16.340;2023-10-19T03:09:33;97985.94;;;15.00;46.29
16331;BME280;8275;48.206;16.340;2023-10-19T03:12:04;97988.19;;;14.98;46.39
16331;BME280;8275;48.206;16.340;2023-10-19T03:14:37;97982.47;;;14.94;46.34
16331;BME280;8275;48.206;16.340;2023-10-19T03:17:05;97987.22;;;14.94;46.46
16331;BME280;8275;48.206;16.340;2023-10-19T03:19:36;97979.56;;;14.91;46.50
16331;BME280;8275;48.206;16.340;2023-10-19T03:22:05;97982.66;;;14.89;46.66
16331;BME280;8275;48.206;16.340;2023-10-19T03:24:34;97969.47;;;14.86;46.87
16331;BME280;8275;48.206;16.340;2023-10-19T03:27:09;97970.91;;;14.84;46.84
16331;BME280;8275;48.206;16.340;2023-10-19T03:29:41;97970.75;;;14.80;46.89
16331;BME280;8275;48.206;16.340;2023-10-19T03:32:13;97978.19;;;14.80;46.90
16331;BME280;8275;48.206;16.340;2023-10-19T03:34:43;97981.56;;;14.76;46.89
16331;BME280;8275;48.206;16.340;2023-10-19T03:37:15;97968.94;;;14.75;47.04
16331;BME280;8275;48.206;16.340;2023-10-19T03:39:48;97960.97;;;14.74;47.14
16331;BME280;8275;48.206;16.340;2023-10-19T03:42:18;97958.53;;;14.72;47.27
16331;BME280;8275;48.206;16.340;2023-10-19T03:44:48;97964.38;;;14.71;47.24
16331;BME280;8275;48.206;16.340;2023-10-19T03:47:21;97961.09;;;14.69;47.29
16331;BME280;8275;48.206;16.340;2023-10-19T03:49:54;97965.00;;;14.68;47.27
16331;BME280;8275;48.206;16.340;2023-10-19T03:52:23;97960.59;;;14.67;47.36
16331;BME280;8275;48.206;16.340;2023-10-19T03:54:59;97965.59;;;14.65;47.48
16331;BME280;8275;48.206;16.340;2023-10-19T03:57:28;97963.19;;;14.63;47.51
16331;BME280;8275;48.206;16.340;2023-10-19T03:59:57;97953.25;;;14.62;47.57
16331;BME280;8275;48.206;16.340;2023-10-19T04:02:26;97964.63;;;14.61;47.64
16331;BME280;8275;48.206;16.340;2023-10-19T04:04:56;97959.44;;;14.59;47.65
16331;BME280;8275;48.206;16.340;2023-10-19T04:07:25;97945.94;;;14.58;47.74
16331;BME280;8275;48.206;16.340;2023-10-19T04:09:55;97928.09;;;14.55;47.89
16331;BME280;8275;48.206;16.340;2023-10-19T04:12:39;97931.16;;;14.54;47.95
16331;BME280;8275;48.206;16.340;2023-10-19T04:15:11;97915.47;;;14.54;48.04
16331;BME280;8275;48.206;16.340;2023-10-19T04:17:43;97916.28;;;14.55;48.06
16331;BME280;8275;48.206;16.340;2023-10-19T04:20:14;97917.06;;;14.55;48.30
16331;BME280;8275;48.206;16.340;2023-10-19T04:22:56;97918.72;;;14.56;48.14
16331;BME280;8275;48.206;16.340;2023-10-19T04:25:32;97907.69;;;14.56;48.33
16331;BME280;8275;48.206;16.340;2023-10-19T04:28:03;97909.28;;;14.57;48.46
16331;BME280;8275;48.206;16.340;2023-10-19T04:30:32;97911.75;;;14.59;48.53
16331;BME280;8275;48.206;16.340;2023-10-19T04:33:04;97910.31;;;14.61;48.54
16331;BME280;8275;48.206;16.340;2023-10-19T04:35:36;97907.22;;;14.63;48.71
16331;BME280;8275;48.206;16.340;2023-10-19T04:38:08;97905.78;;;14.65;48.70
16331;BME280;8275;48.206;16.340;2023-10-19T04:40:37;97902.72;;;14.67;48.73
16331;BME280;8275;48.206;16.340;2023-10-19T04:43:07;97897.41;;;14.70;48.73
16331;BME280;8275;48.206;16.340;2023-10-19T04:45:39;97894.31;;;14.72;48.87
16331;BME280;8275;48.206;16.340;2023-10-19T04:48:08;97893.69;;;14.75;48.87
16331;BME280;8275;48.206;16.340;2023-10-19T04:50:37;97893.34;;;14.76;48.82
16331;BME280;8275;48.206;16.340;2023-10-19T04:53:07;97892.75;;;14.80;48.83
16331;BME280;8275;48.206;16.340;2023-10-19T04:55:35;97888.22;;;14.84;48.92
16331;BME280;8275;48.206;16.340;2023-10-19T04:58:06;97893.09;;;14.87;49.00
16331;BME280;8275;48.206;16.340;2023-10-19T05:00:34;97892.97;;;14.92;49.08
16331;BME280;8275;48.206;16.340;2023-10-19T05:03:03;97889.25;;;14.96;49.04
16331;BME280;8275;48.206;16.340;2023-10-19T05:05:33;97888.59;;;14.99;49.11
16331;BME280;8275;48.206;16.340;2023-10-19T05:08:03;97896.72;;;15.04;49.03
16331;BME280;8275;48.206;16.340;2023-10-19T05:10:32;97881.66;;;15.10;49.14
16331;BME280;8275;48.206;16.340;2023-10-19T05:13:01;97879.09;;;15.14;49.12
16331;BME280;8275;48.206;16.340;2023-10-19T05:15:32;97875.69;;;15.17;49.11
16331;BME280;8275;48.206;16.340;2023-10-19T05:18:03;97884.94;;;15.21;49.07
16331;BME280;8275;48.206;16.340;2023-10-19T05:20:32;97893.88;;;15.26;49.07
16331;BME280;8275;48.206;16.340;2023-10-19T05:23:01;97881.59;;;15.32;49.11
16331;BME280;8275;48.206;16.340;2023-10-19T05:25:31;97877.53;;;15.38;49.14
16331;BME280;8275;48.206;16.340;2023-10-19T05:27:59;97870.56;;;15.41;49.00
16331;BME280;8275;48.206;16.340;2023-10-19T05:30:28;97871.56;;;15.45;49.23
16331;BME280;8275;48.206;16.340;2023-10-19T05:32:58;97873.34;;;15.50;49.22
16331;BME280;8275;48.206;16.340;2023-10-19T05:35:30;97865.25;;;15.53;48.93
16331;BME280;8275;48.206;16.340;2023-10-19T05:38:02;97880.03;;;15.57;49.19
16331;BME280;8275;48.206;16.340;2023-10-19T05:40:31;97884.28;;;15.63;49.18
16331;BME280;8275;48.206;16.340;2023-10-19T05:42:59;97875.53;;;15.70;49.32
16331;BME280;8275;48.206;16.340;2023-10-19T05:45:28;97865.94;;;15.76;49.18
16331;BME280;8275;48.206;16.340;2023-10-19T05:47:58;97849.22;;;15.81;49.25
16331;BME280;8275;48.206;16.340;2023-10-19T05:50:27;97851.00;;;15.85;49.21
16331;BME280;8275;48.206;16.340;2023-10-19T05:52:56;97861.41;;;15.88;49.07
16331;BME280;8275;48.206;16.340;2023-10-19T05:55:24;97871.78;;;15.91;49.12
16331;BME280;8275;48.206;16.340;2023-10-19T05:57:53;97865.94;;;15.93;49.04
16331;BME280;8275;48.206;16.340;2023-10-19T06:00:22;97856.22;;;15.95;49.04
16331;BME280;8275;48.206;16.340;2023-10-19T06:02:53;97852.78;;;15.98;49.07
16331;BME280;8275;48.206;16.340;2023-10-19T06:05:23;97856.00;;;16.00;49.24
16331;BME280;8275;48.206;16.340;2023-10-19T06:07:52;97845.78;;;16.01;49.14
16331;BME280;8275;48.206;16.340;2023-10-19T06:10:21;97855.38;;;16.03;49.31
16331;BME280;8275;48.206;16.340;2023-10-19T06:12:51;97858.28;;;16.07;49.18
16331;BME280;8275;48.206;16.340;2023-10-19T06:15:22;97864.47;;;16.12;49.30
16331;BME280;8275;48.206;16.340;2023-10-19T06:17:51;97865.75;;;16.24;49.29
16331;BME280;8275;48.206;16.340;2023-10-19T06:20:20;97856.97;;;16.30;49.26
16331;BME280;8275;48.206;16.340;2023-10-19T06:22:54;97857.28;;;16.37;49.28
16331;BME280;8275;48.206;16.340;2023-10-19T06:25:24;97861.16;;;16.45;49.17
16331;BME280;8275;48.206;16.340;2023-10-19T06:27:53;97857.13;;;16.51;49.19
16331;BME280;8275;48.206;16.340;2023-10-19T06:30:25;97856.94;;;16.56;49.13
16331;BME280;8275;48.206;16.340;2023-10-19T06:32:55;97853.19;;;16.60;49.14
16331;BME280;8275;48.206;16.340;2023-10-19T06:35:30;97854.66;;;16.66;49.07
16331;BME280;8275;48.206;16.340;2023-10-19T06:38:01;97856.56;;;16.74;49.17
16331;BME280;8275;48.206;16.340;2023-10-19T06:40:33;97868.41;;;16.83;49.15
16331;BME280;8275;48.206;16.340;2023-10-19T06:43:04;97873.72;;;16.97;48.99
16331;BME280;8275;48.206;16.340;2023-10-19T06:45:32;97859.53;;;17.07;48.80
16331;BME280;8275;48.206;16.340;2023-10-19T06:48:02;97849.72;;;17.18;48.85
16331;BME280;8275;48.206;16.340;2023-10-19T06:50:31;97852.75;;;17.25;48.54
16331;BME280;8275;48.206;16.340;2023-10-19T06:53:02;97858.47;;;17.29;48.56
16331;BME280;8275;48.206;16.340;2023-10-19T06:55:32;97847.03;;;17.30;48.54
16331;BME280;8275;48.206;16.340;2023-10-19T06:58:01;97857.78;;;17.32;48.49
16331;BME280;8275;48.206;16.340;2023-10-19T07:00:29;97855.94;;;17.36;48.55
16331;BME280;8275;48.206;16.340;2023-10-19T07:02:58;97843.56;;;17.42;48.43
16331;BME280;8275;48.206;16.340;2023-10-19T07:05:29;97840.25;;;17.48;48.28
16331;BME280;8275;48.206;16.340;2023-10-19T07:07:59;97829.50;;;17.56;48.33
16331;BME280;8275;48.206;16.340;2023-10-19T07:10:30;97828.94;;;17.62;48.17
16331;BME280;8275;48.206;16.340;2023-10-19T07:12:59;97819.63;;;17.67;47.97
16331;BME280;8275;48.206;16.340;2023-10-19T07:15:29;97824.97;;;17.72;47.99
16331;BME280;8275;48.206;16.340;2023-10-19T07:17:58;97815.66;;;17.76;47.89
16331;BME280;8275;48.206;16.340;2023-10-19T07:20:27;97825.25;;;17.79;47.95
16331;BME280;8275;48.206;16.340;2023-10-19T07:23:00;97824.06;;;17.80;47.78
16331;BME280;8275;48.206;16.340;2023-10-19T07:25:36;97833.69;;;17.82;47.78
16331;BME280;8275;48.206;16.340;2023-10-19T07:28:11;97829.41;;;17.85;47.76
16331;BME280;8275;48.206;16.340;2023-10-19T07:30:40;97833.94;;;17.89;47.74
16331;BME280;8275;48.206;16.340;2023-10-19T07:33:10;97824.75;;;17.97;47.69
16331;BME280;8275;48.206;16.340;2023-10-19T07:35:45;97824.56;;;18.02;47.61
16331;BME280;8275;48.206;16.340;2023-10-19T07:38:15;97829.56;;;18.09;47.50
16331;BME280;8275;48.206;16.340;2023-10-19T07:40:45;97817.75;;;18.12;47.51
16331;BME280;8275;48.206;16.340;2023-10-19T07:43:14;97827.81;;;18.16;47.36
16331;BME280;8275;48.206;16.340;2023-10-19T07:45:42;97818.03;;;18.19;47.15
16331;BME280;8275;48.206;16.340;2023-10-19T07:48:11;97818.84;;;18.19;47.17
16331;BME280;8275;48.206;16.340;2023-10-19T07:50:40;97818.03;;;18.19;47.01
16331;BME280;8275;48.206;16.340;2023-10-19T07:53:10;97815.59;;;18.17;47.12
16331;BME280;8275;48.206;16.340;2023-10-19T07:55:38;97813.28;;;18.19;47.16
16331;BME280;8275;48.206;16.340;2023-10-19T07:58:09;97810.66;;;18.23;46.94
16331;BME280;8275;48.206;16.340;2023-10-19T08:00:37;97809.66;;;18.28;46.98
16331;BME280;8275;48.206;16.340;2023-10-19T08:03:06;97803.84;;;18.33;46.87
16331;BME280;8275;48.206;16.340;2023-10-19T08:05:36;97803.78;;;18.41;47.13
16331;BME280;8275;48.206;16.340;2023-10-19T08:08:06;97813.19;;;18.49;46.98
16331;BME280;8275;48.206;16.340;2023-10-19T08:10:34;97822.91;;;18.55;46.84
16331;BME280;8275;48.206;16.340;2023-10-19T08:13:04;97832.63;;;18.61;46.68
16331;BME280;8275;48.206;16.340;2023-10-19T08:15:34;97829.53;;;18.62;46.67
16331;BME280;8275;48.206;16.340;2023-10-19T08:18:04;97829.28;;;18.67;46.69
16331;BME280;8275;48.206;16.340;2023-10-19T08:20:33;97823.53;;;18.72;46.55
16331;BME280;8275;48.206;16.340;2023-10-19T08:23:04;97820.53;;;18.77;46.46
16331;BME280;8275;48.206;16.340;2023-10-19T08:25:33;97813.13;;;18.81;46.47
16331;BME280;8275;48.206;16.340;2023-10-19T08:28:21;97803.91;;;18.89;46.32
16331;BME280;8275;48.206;16.340;2023-10-19T08:30:52;97805.28;;;18.96;46.07
16331;BME280;8275;48.206;16.340;2023-10-19T08:33:28;97810.25;;;19.02;45.81
16331;BME280;8275;48.206;16.340;2023-10-19T08:36:01;97816.41;;;19.08;45.86
16331;BME280;8275;48.206;16.340;2023-10-19T08:38:30;97809.44;;;19.14;45.85
16331;BME280;8275;48.206;16.340;2023-10-19T08:41:00;97802.84;;;19.18;45.71
16331;BME280;8275;48.206;16.340;2023-10-19T08:43:30;97798.47;;;19.17;45.69
16331;BME280;8275;48.206;16.340;2023-10-19T08:46:02;97791.75;;;19.18;45.60
16331;BME280;8275;48.206;16.340;2023-10-19T08:48:34;97791.88;;;19.22;45.78
16331;BME280;8275;48.206;16.340;2023-10-19T08:51:09;97795.94;;;19.24;45.67
16331;BME280;8275;48.206;16.340;2023-10-19T08:53:38;97797.19;;;19.27;45.66
16331;BME280;8275;48.206;16.340;2023-10-19T08:56:08;97787.00;;;19.31;45.68
16331;BME280;8275;48.206;16.340;2023-10-19T08:58:39;97792.66;;;19.34;45.50
16331;BME280;8275;48.206;16.340;2023-10-19T09:01:10;97778.94;;;19.38;45.50
16331;BME280;8275;48.206;16.340;2023-10-19T09:03:39;97782.25;;;19.43;45.51
16331;BME280;8275;48.206;16.340;2023-10-19T09:06:11;97783.53;;;19.46;45.24
16331;BME280;8275;48.206;16.340;2023-10-19T09:08:42;97778.56;;;19.51;45.23
16331;BME280;8275;48.206;16.340;2023-10-19T09:11:14;97776.59;;;19.52;45.14
16331;BME280;8275;48.206;16.340;2023-10-19T09:13:44;97773.91;;;19.55;45.11
16331;BME280;8275;48.206;16.340;2023-10-19T09:16:16;97766.47;;;19.59;45.13
16331;BME280;8275;48.206;16.340;2023-10-19T09:18:46;97769.84;;;19.65;45.13
16331;BME280;8275;48.206;16.340;2023-10-19T09:21:16;97776.75;;;19.71;44.90
16331;BME280;8275;48.206;16.340;2023-10-19T09:23:53;97781.81;;;19.81;44.96
16331;BME280;8275;48.206;16.340;2023-10-19T09:26:24;97768.50;;;19.87;44.98
16331;BME280;8275;48.206;16.340;2023-10-19T09:28:53;97762.22;;;19.90;44.91
16331;BME280;8275;48.206;16.340;2023-10-19T09:31:24;97765.13;;;19.93;44.65
16331;BME280;8275;48.206;16.340;2023-10-19T09:33:52;97766.47;;;19.99;44.69
16331;BME280;8275;48.206;16.340;2023-10-19T09:36:25;97761.19;;;20.10;44.57
16331;BME280;8275;48.206;16.340;2023-10-19T09:38:57;97769.84;;;20.20;44.61
16331;BME280;8275;48.206;16.340;2023-10-19T09:41:26;97755.81;;;20.29;44.66
16331;BME280;8275;48.206;16.340;2023-10-19T09:44:01;97756.13;;;20.40;44.42
16331;BME280;8275;48.206;16.340;2023-10-19T09:46:37;97760.78;;;20.51;44.39
16331;BME280;8275;48.206;16.340;2023-10-19T09:49:07;97755.75;;;20.57;43.77
16331;BME280;8275;48.206;16.340;2023-10-19T09:51:40;97753.34;;;20.55;43.58
16331;BME280;8275;48.206;16.340;2023-10-19T09:54:42;97748.47;;;20.52;43.78
16331;BME280;8275;48.206;16.340;2023-10-19T09:57:21;97726.78;;;20.58;43.73
16331;BME280;8275;48.206;16.340;2023-10-19T10:00:00;97731.78;;;20.68;43.95
16331;BME280;8275;48.206;16.340;2023-10-19T10:02:38;97744.34;;;20.77;43.62
16331;BME280;8275;48.206;16.340;2023-10-19T10:05:47;97738.53;;;20.82;43.88
16331;BME280;8275;48.206;16.340;2023-10-19T10:08:31;97736.09;;;20.96;43.44
16331;BME280;8275;48.206;16.340;2023-10-19T10:11:15;97734.31;;;21.04;43.40
16331;BME280;8275;48.206;16.340;2023-10-19T10:13:45;97745.97;;;21.10;43.12
16331;BME280;8275;48.206;16.340;2023-10-19T10:16:21;97738.44;;;21.10;43.08
16331;BME280;8275;48.206;16.340;2023-10-19T10:18:55;97734.84;;;21.10;43.06
16331;BME280;8275;48.206;16.340;2023-10-19T10:21:27;97728.00;;;21.07;42.80
16331;BME280;8275;48.206;16.340;2023-10-19T10:23:59;97724.41;;;21.07;42.94
16331;BME280;8275;48.206;16.340;2023-10-19T10:26:29;97730.09;;;21.10;43.05
16331;BME280;8275;48.206;16.340;2023-10-19T10:29:21;97710.75;;;21.17;42.87
16331;BME280;8275;48.206;16.340;2023-10-19T10:31:51;97720.25;;;21.32;42.96
16331;BME280;8275;48.206;16.340;2023-10-19T10:34:43;97718.84;;;21.41;42.75
16331;BME280;8275;48.206;16.340;2023-10-19T10:37:12;97705.59;;;21.54;42.86
16331;BME280;8275;48.206;16.340;2023-10-19T10:39:41;97693.06;;;21.63;42.68
16331;BME280;8275;48.206;16.340;2023-10-19T10:42:12;97688.91;;;21.73;42.58
16331;BME280;8275;48.206;16.340;2023-10-19T10:44:44;97696.16;;;21.78;42.35
16331;BME280;8275;48.206;16.340;2023-10-19T10:47:17;97698.56;;;21.79;41.75
16331;BME280;8275;48.206;16.340;2023-10-19T10:49:53;97685.00;;;21.78;41.63
16331;BME280;8275;48.206;16.340;2023-10-19T10:52:30;97674.56;;;21.75;42.00
16331;BME280;8275;48.206;16.340;2023-10-19T10:55:09;97664.25;;;21.75;41.55
16331;BME280;8275;48.206;16.340;2023-10-19T10:57:40;97658.28;;;21.77;41.86
16331;BME280;8275;48.206;16.340;2023-10-19T11:00:11;97659.59;;;21.83;41.97
16331;BME280;8275;48.206;16.340;2023-10-19T11:02:44;97666.59;;;21.92;41.87
16331;BME280;8275;48.206;16.340;2023-10-19T11:05:16;97655.69;;;22.06;41.34
16331;BME280;8275;48.206;16.340;2023-10-19T11:08:06;97647.72;;;22.27;41.82
16331;BME280;8275;48.206;16.340;2023-10-19T11:10:36;97648.53;;;22.51;41.13
16331;BME280;8275;48.206;16.340;2023-10-19T11:13:07;97645.72;;;22.73;41.30
16331;BME280;8275;48.206;16.340;2023-10-19T11:15:37;97638.22;;;23.03;41.01
16331;BME280;8275;48.206;16.340;2023-10-19T11:18:06;97634.72;;;23.36;40.45
16331;BME280;8275;48.206;16.340;2023-10-19T11:20:36;97620.38;;;23.71;40.05
16331;BME280;8275;48.206;16.340;2023-10-19T11:23:05;97615.44;;;23.98;39.43
16331;BME280;8275;48.206;16.340;2023-10-19T11:25:34;97617.28;;;24.20;39.06
16331;BME280;8275;48.206;16.340;2023-10-19T11:28:17;97624.66;;;24.38;38.81
16331;BME280;8275;48.206;16.340;2023-10-19T11:30:46;97630.81;;;24.55;38.42
16331;BME280;8275;48.206;16.340;2023-10-19T11:33:15;97616.91;;;24.65;38.09
16331;BME280;8275;48.206;16.340;2023-10-19T11:35:50;97619.34;;;24.74;37.91
16331;BME280;8275;48.206;16.340;2023-10-19T11:38:19;97605.44;;;24.81;37.76
16331;BME280;8275;48.206;16.340;2023-10-19T11:40:48;97597.53;;;24.97;37.52
16331;BME280;8275;48.206;16.340;2023-10-19T11:43:16;97604.09;;;25.22;37.31
16331;BME280;8275;48.206;16.340;2023-10-19T11:45:46;97603.03;;;25.51;37.29
16331;BME280;8275;48.206;16.340;2023-10-19T11:48:15;97593.13;;;25.82;36.79
16331;BME280;8275;48.206;16.340;2023-10-19T11:50:43;97596.03;;;26.10;36.54
16331;BME280;8275;48.206;16.340;2023-10-19T11:53:13;97578.38;;;26.27;36.07
16331;BME280;8275;48.206;16.340;2023-10-19T11:55:42;97581.59;;;26.19;35.79
16331;BME280;8275;48.206;16.340;2023-10-19T11:58:10;97577.53;;;25.99;35.98
16331;BME280;8275;48.206;16.340;2023-10-19T12:00:41;97575.88;;;25.84;35.92
16331;BME280;8275;48.206;16.340;2023-10-19T12:03:10;97563.44;;;25.74;35.86
16331;BME280;8275;48.206;16.340;2023-10-19T12:05:39;97556.63;;;25.68;36.03
16331;BME280;8275;48.206;16.340;2023-10-19T12:08:09;97559.00;;;25.59;35.91
16331;BME280;8275;48.206;16.340;2023-10-19T12:10:39;97558.97;;;25.48;36.16
16331;BME280;8275;48.206;16.340;2023-10-19T12:13:07;97565.28;;;25.31;35.95
16331;BME280;8275;48.206;16.340;2023-10-19T12:15:37;97555.19;;;25.13;36.15
16331;BME280;8275;48.206;16.340;2023-10-19T12:18:05;97551.13;;;24.99;36.88
16331;BME280;8275;48.206;16.340;2023-10-19T12:20:35;97548.25;;;24.89;36.70
16331;BME280;8275;48.206;16.340;2023-10-19T12:23:04;97537.81;;;24.82;36.58
16331;BME280;8275;48.206;16.340;2023-10-19T12:25:33;97524.56;;;24.76;36.90
16331;BME280;8275;48.206;16.340;2023-10-19T12:28:21;97522.09;;;24.67;36.87
16331;BME280;8275;48.206;16.340;2023-10-19T12:30:52;97525.25;;;24.59;36.68
16331;BME280;8275;48.206;16.340;2023-10-19T12:33:20;97514.78;;;24.49;36.68
16331;BME280;8275;48.206;16.340;2023-10-19T12:35:49;97512.28;;;24.36;36.96
16331;BME280;8275;48.206;16.340;2023-10-19T12:38:19;97527.81;;;24.27;36.86
16331;BME280;8275;48.206;16.340;2023-10-19T12:40:49;97519.34;;;24.16;36.96
16331;BME280;8275;48.206;16.340;2023-10-19T12:43:18;97507.69;;;24.07;37.23
16331;BME280;8275;48.206;16.340;2023-10-19T12:45:51;97505.97;;;23.99;37.45
16331;BME280;8275;48.206;16.340;2023-10-19T12:48:21;97513.94;;;23.97;37.35
16331;BME280;8275;48.206;16.340;2023-10-19T12:50:49;97514.34;;;23.96;37.54
16331;BME280;8275;48.206;16.340;2023-10-19T12:53:18;97511.13;;;23.94;37.54
16331;BME280;8275;48.206;16.340;2023-10-19T12:55:49;97511.47;;;23.89;37.79
16331;BME280;8275;48.206;16.340;2023-10-19T12:58:17;97499.81;;;23.83;37.38
16331;BME280;8275;48.206;16.340;2023-10-19T13:00:47;97497.00;;;23.80;37.73
16331;BME280;8275;48.206;16.340;2023-10-19T13:03:17;97485.41;;;23.78;37.86
16331;BME280;8275;48.206;16.340;2023-10-19T13:05:46;97491.56;;;23.94;37.83
16331;BME280;8275;48.206;16.340;2023-10-19T13:08:16;97490.25;;;24.31;37.63
16331;BME280;8275;48.206;16.340;2023-10-19T13:10:47;97490.59;;;24.84;37.21
16331;BME280;8275;48.206;16.340;2023-10-19T13:13:19;97487.69;;;25.46;36.37
16331;BME280;8275;48.206;16.340;2023-10-19T13:15:51;97493.34;;;26.02;36.15
16331;BME280;8275;48.206;16.340;2023-10-19T13:18:22;97486.94;;;26.30;35.74
16331;BME280;8275;48.206;16.340;2023-10-19T13:20:55;97490.56;;;26.34;34.91
16331;BME280;8275;48.206;16.340;2023-10-19T13:23:24;97483.34;;;26.29;34.99